Time;durP1;ratioP1;P1;durP2;ratioP2;P2;SDS_P1;SDS_P2;PMS_P1;PMS_P2;Temp;Humidity;BMP_temperature;BMP_pressure;BME280_temperature;BME280_humidity;BME280_pressure;Samples;Min_cycle;Max_cycle;Signal;HPM_P1;HPM_P2
2021/11/14 00:02:10;;;;;;;79.65;41.20;;;;;;;;;;6196223;28;20144;-64
2021/11/14 00:05:12;;;;;;;73.22;39.35;;;;;;;;;;6202941;28;20507;-65
2021/11/14 00:08:14;;;;;;;84.13;41.40;;;;;;;;;;6206344;28;20145;-64
2021/11/14 00:11:16;;;;;;;79.13;41.47;;;;;;;;;;6203300;28;20034;-64
2021/11/14 00:14:19;;;;;;;88.28;39.30;;;;;;;;;;6213739;28;20136;-64
2021/11/14 00:17:20;;;;;;;80.47;41.45;;;;;;;;;;6193065;28;20066;-64
2021/11/14 00:20:23;;;;;;;80.15;41.80;;;;;;;;;;6199235;28;20050;-65
2021/11/14 00:23:24;;;;;;;77.25;40.72;;;;;;;;;;6209246;28;20087;-64
2021/11/14 00:26:26;;;;;;;81.00;41.47;;;;;;;;;;6203353;28;20115;-64
2021/11/14 00:29:29;;;;;;;80.45;40.50;;;;;;;;;;6206856;28;20045;-64
2021/11/14 00:32:30;;;;;;;67.63;39.42;;;;;;;;;;6190062;28;20053;-65
2021/11/14 00:35:32;;;;;;;81.28;39.15;;;;;;;;;;6188388;28;20132;-65
2021/11/14 00:38:33;;;;;;;65.03;37.00;;;;;;;;;;6206057;28;20068;-64
2021/11/14 00:41:34;;;;;;;68.68;38.13;;;;;;;;;;6194546;28;20133;-65
2021/11/14 00:44:37;;;;;;;70.43;36.42;;;;;;;;;;6211706;28;20105;-64
2021/11/14 00:47:40;;;;;;;59.45;33.45;;;;;;;;;;6189115;28;20108;-65
2021/11/14 00:50:44;;;;;;;59.80;32.85;;;;;;;;;;6189257;28;20088;-64
2021/11/14 00:53:45;;;;;;;52.70;31.05;;;;;;;;;;6219018;28;20064;-65
2021/11/14 00:56:47;;;;;;;54.13;31.60;;;;;;;;;;6204726;28;20119;-65
2021/11/14 00:59:50;;;;;;;56.65;34.70;;;;;;;;;;6205658;28;20160;-64
2021/11/14 01:02:51;;;;;;;52.15;32.35;;;;;;;;;;6188144;28;20053;-64
2021/11/14 01:05:53;;;;;;;55.53;33.22;;;;;;;;;;6189104;28;20095;-64
2021/11/14 01:08:54;;;;;;;56.50;32.40;;;;;;;;;;6202978;28;20049;-64
2021/11/14 01:11:56;;;;;;;58.00;34.47;;;;;;;;;;6196606;28;20103;-64
2021/11/14 01:14:59;;;;;;;64.05;35.28;;;;;;;;;;6210978;28;20058;-64
2021/11/14 01:18:00;;;;;;;68.63;35.10;;;;;;;;;;6185889;28;20042;-64
2021/11/14 01:21:04;;;;;;;63.50;33.58;;;;;;;;;;6195198;28;20054;-64
2021/11/14 01:24:06;;;;;;;64.25;32.50;;;;;;;;;;6210644;28;20065;-64
2021/11/14 01:27:08;;;;;;;56.17;30.50;;;;;;;;;;6205722;28;20054;-64
2021/11/14 01:30:11;;;;;;;53.35;28.60;;;;;;;;;;6208570;28;20062;-65
2021/11/14 01:33:14;;;;;;;54.47;27.48;;;;;;;;;;6203244;28;20490;-64
2021/11/14 01:36:15;;;;;;;49.50;25.63;;;;;;;;;;6203942;28;20072;-64
2021/11/14 01:39:17;;;;;;;58.22;26.85;;;;;;;;;;6211572;28;20050;-64
2021/11/14 01:42:18;;;;;;;54.15;26.83;;;;;;;;;;6202347;28;20054;-64
2021/11/14 01:45:22;;;;;;;54.13;26.15;;;;;;;;;;6191622;28;20057;-64
2021/11/14 01:48:24;;;;;;;49.65;26.95;;;;;;;;;;6194832;28;20477;-64
2021/11/14 01:51:26;;;;;;;58.20;28.70;;;;;;;;;;6197065;28;20428;-64
2021/11/14 01:54:29;;;;;;;57.63;27.73;;;;;;;;;;6210848;28;20053;-64
2021/11/14 01:57:30;;;;;;;80.70;29.00;;;;;;;;;;6199925;28;20034;-65
2021/11/14 02:00:36;;;;;;;92.70;29.42;;;;;;;;;;6196053;28;20192;-65
2021/11/14 02:03:38;;;;;;;80.38;31.23;;;;;;;;;;6208052;28;20133;-64
2021/11/14 02:06:46;;;;;;;93.57;31.35;;;;;;;;;;6198947;28;20700;-64
2021/11/14 02:09:49;;;;;;;69.32;30.02;;;;;;;;;;6209960;28;20061;-64
2021/11/14 02:12:51;;;;;;;74.82;30.23;;;;;;;;;;6199483;28;20057;-64
2021/11/14 02:15:53;;;;;;;83.85;28.60;;;;;;;;;;6201289;28;20386;-65
2021/11/14 02:18:55;;;;;;;65.20;27.13;;;;;;;;;;6199656;28;20050;-64
2021/11/14 02:21:58;;;;;;;58.63;28.02;;;;;;;;;;6202795;28;20073;-64
2021/11/14 02:24:59;;;;;;;82.30;29.30;;;;;;;;;;6209007;28;20350;-64
2021/11/14 02:28:01;;;;;;;69.40;27.55;;;;;;;;;;6206295;28;20048;-64
2021/11/14 02:31:04;;;;;;;85.50;28.17;;;;;;;;;;6197490;28;20049;-64
2021/11/14 02:34:05;;;;;;;71.60;25.88;;;;;;;;;;6198386;28;20054;-64
2021/11/14 02:37:08;;;;;;;57.65;25.95;;;;;;;;;;6201423;28;20058;-65
2021/11/14 02:40:11;;;;;;;53.65;24.02;;;;;;;;;;6203931;28;20179;-65
2021/11/14 02:43:12;;;;;;;71.30;25.52;;;;;;;;;;6204491;28;20081;-67
2021/11/14 02:46:14;;;;;;;52.88;25.15;;;;;;;;;;6200420;28;20165;-64
2021/11/14 02:49:16;;;;;;;75.88;25.30;;;;;;;;;;6207212;28;20177;-64
2021/11/14 02:52:19;;;;;;;63.05;24.38;;;;;;;;;;6196959;28;20457;-64
2021/11/14 02:55:22;;;;;;;60.60;23.77;;;;;;;;;;6197890;28;20056;-66
2021/11/14 02:58:23;;;;;;;44.72;23.70;;;;;;;;;;6205009;28;20556;-64
2021/11/14 03:01:28;;;;;;;86.68;23.27;;;;;;;;;;6194357;28;20509;-64
2021/11/14 03:04:31;;;;;;;64.38;22.70;;;;;;;;;;6200666;28;20058;-64
2021/11/14 03:07:34;;;;;;;48.65;23.73;;;;;;;;;;6197767;28;20192;-64
2021/11/14 03:10:35;;;;;;;42.05;21.75;;;;;;;;;;6200368;28;20113;-66
2021/11/14 03:13:37;;;;;;;53.38;21.38;;;;;;;;;;6215331;28;20052;-66
2021/11/14 03:16:39;;;;;;;54.33;21.90;;;;;;;;;;6193276;28;20092;-66
2021/11/14 03:19:40;;;;;;;62.70;22.50;;;;;;;;;;6203584;28;20045;-64
2021/11/14 03:22:43;;;;;;;58.88;23.15;;;;;;;;;;6194849;28;20049;-66
2021/11/14 03:25:44;;;;;;;62.50;23.67;;;;;;;;;;6205567;28;20095;-66
2021/11/14 03:28:46;;;;;;;52.45;23.38;;;;;;;;;;6206697;28;20048;-65
2021/11/14 03:31:48;;;;;;;61.92;26.35;;;;;;;;;;6194434;28;20224;-65
2021/11/14 03:34:49;;;;;;;67.18;28.05;;;;;;;;;;6201133;28;20053;-65
2021/11/14 03:37:52;;;;;;;78.60;26.05;;;;;;;;;;6196429;28;20053;-65
2021/11/14 03:40:54;;;;;;;77.43;27.02;;;;;;;;;;6197868;28;20073;-65
2021/11/14 03:43:55;;;;;;;66.43;26.17;;;;;;;;;;6212001;28;20099;-65
2021/11/14 03:46:57;;;;;;;92.47;25.70;;;;;;;;;;6192696;28;20054;-65
2021/11/14 03:49:58;;;;;;;64.28;25.95;;;;;;;;;;6205497;28;20149;-65
2021/11/14 03:53:01;;;;;;;59.22;26.70;;;;;;;;;;6197548;28;20050;-65
2021/11/14 03:56:05;;;;;;;74.38;25.50;;;;;;;;;;6203021;28;20137;-65
2021/11/14 03:59:07;;;;;;;74.97;24.38;;;;;;;;;;6211017;28;20041;-65
2021/11/14 04:02:08;;;;;;;70.30;24.20;;;;;;;;;;6195328;28;20062;-65
2021/11/14 04:05:10;;;;;;;67.97;23.63;;;;;;;;;;6202569;28;20053;-65
2021/11/14 04:08:15;;;;;;;55.72;23.45;;;;;;;;;;6205018;28;20049;-65
2021/11/14 04:11:17;;;;;;;62.53;21.90;;;;;;;;;;6199766;28;20053;-65
2021/11/14 04:14:18;;;;;;;42.90;20.23;;;;;;;;;;6212787;28;20045;-65
2021/11/14 04:17:20;;;;;;;60.90;19.83;;;;;;;;;;6196062;28;20115;-64
2021/11/14 04:20:22;;;;;;;40.20;19.77;;;;;;;;;;6210184;28;20457;-65
2021/11/14 04:23:25;;;;;;;45.97;18.13;;;;;;;;;;6210710;28;20050;-65
2021/11/14 04:26:26;;;;;;;41.00;17.48;;;;;;;;;;6202255;28;20050;-65
2021/11/14 04:29:28;;;;;;;32.00;15.75;;;;;;;;;;6211268;28;20046;-64
2021/11/14 04:32:29;;;;;;;25.88;14.85;;;;;;;;;;6194530;28;20125;-64
2021/11/14 04:35:30;;;;;;;26.83;14.75;;;;;;;;;;6201665;28;20129;-65
2021/11/14 04:38:35;;;;;;;31.67;15.23;;;;;;;;;;6216444;28;20050;-64
2021/11/14 04:41:37;;;;;;;35.33;14.05;;;;;;;;;;6207653;28;20046;-64
2021/11/14 04:44:38;;;;;;;34.30;13.00;;;;;;;;;;6216147;28;20056;-64
2021/11/14 04:47:40;;;;;;;25.75;12.82;;;;;;;;;;6198282;28;20042;-66
2021/11/14 04:50:41;;;;;;;24.40;11.40;;;;;;;;;;6201428;28;20800;-64
2021/11/14 04:53:44;;;;;;;24.30;10.95;;;;;;;;;;6211898;28;20449;-64
2021/11/14 04:56:46;;;;;;;19.65;10.23;;;;;;;;;;6202466;28;20085;-64
2021/11/14 04:59:47;;;;;;;22.40;9.27;;;;;;;;;;6212038;28;20053;-64
2021/11/14 05:02:48;;;;;;;14.88;8.90;;;;;;;;;;6194697;28;20056;-65
2021/11/14 05:05:50;;;;;;;17.17;9.18;;;;;;;;;;6201978;28;20573;-65
2021/11/14 05:08:53;;;;;;;17.40;9.77;;;;;;;;;;6215482;28;20461;-65
2021/11/14 05:11:54;;;;;;;17.92;10.43;;;;;;;;;;6207064;28;20099;-65
2021/11/14 05:14:56;;;;;;;19.52;10.32;;;;;;;;;;6215239;28;20128;-65
2021/11/14 05:17:57;;;;;;;17.48;9.85;;;;;;;;;;6198394;28;20066;-64
2021/11/14 05:20:58;;;;;;;14.57;9.32;;;;;;;;;;6202392;28;20103;-66
2021/11/14 05:24:01;;;;;;;13.73;8.48;;;;;;;;;;6213170;28;20172;-65
2021/11/14 05:27:03;;;;;;;16.25;8.60;;;;;;;;;;6203211;28;20042;-65
2021/11/14 05:30:05;;;;;;;14.88;7.97;;;;;;;;;;6210361;28;20081;-69
2021/11/14 05:33:07;;;;;;;16.75;8.30;;;;;;;;;;6196620;28;20041;-68
2021/11/14 05:36:08;;;;;;;17.42;9.15;;;;;;;;;;6201197;28;20049;-65
2021/11/14 05:39:11;;;;;;;17.00;9.18;;;;;;;;;;6211703;28;20125;-65
2021/11/14 05:42:12;;;;;;;17.95;10.02;;;;;;;;;;6203309;28;20058;-65
2021/11/14 05:45:14;;;;;;;18.02;10.82;;;;;;;;;;6205006;28;20671;-69
2021/11/14 05:48:16;;;;;;;18.08;9.57;;;;;;;;;;6201787;28;20553;-68
2021/11/14 05:51:17;;;;;;;13.98;8.30;;;;;;;;;;6197169;28;20064;-67
2021/11/14 05:54:20;;;;;;;13.07;8.32;;;;;;;;;;6210125;28;20420;-66
2021/11/14 05:57:21;;;;;;;14.98;7.78;;;;;;;;;;6202305;28;20046;-69
2021/11/14 06:00:27;;;;;;;15.75;8.38;;;;;;;;;;6196774;28;20457;-68
2021/11/14 06:03:34;;;;;;;15.38;8.32;;;;;;;;;;6197101;28;20046;-66
2021/11/14 06:06:35;;;;;;;13.00;7.72;;;;;;;;;;6201317;28;20141;-64
2021/11/14 06:09:38;;;;;;;14.55;7.82;;;;;;;;;;6214845;28;20761;-64
2021/11/14 06:12:40;;;;;;;12.80;7.35;;;;;;;;;;6208642;28;20103;-67
2021/11/14 06:15:41;;;;;;;10.95;7.07;;;;;;;;;;6205816;28;20105;-66
2021/11/14 06:18:43;;;;;;;10.55;5.72;;;;;;;;;;6211522;28;20107;-66
2021/11/14 06:21:44;;;;;;;8.18;5.15;;;;;;;;;;6206347;28;20058;-66
2021/11/14 06:24:47;;;;;;;7.72;4.00;;;;;;;;;;6216762;28;20053;-66
2021/11/14 06:27:48;;;;;;;7.35;3.20;;;;;;;;;;6208393;28;20049;-66
2021/11/14 06:30:49;;;;;;;8.02;3.95;;;;;;;;;;6203186;28;20038;-67
2021/11/14 06:33:51;;;;;;;4.90;3.22;;;;;;;;;;6211421;28;20049;-66
2021/11/14 06:36:53;;;;;;;7.30;3.38;;;;;;;;;;6206200;28;20137;-66
2021/11/14 06:39:56;;;;;;;5.72;3.20;;;;;;;;;;6218742;28;20057;-66
2021/11/14 06:42:57;;;;;;;4.57;3.03;;;;;;;;;;6206927;28;20111;-66
2021/11/14 06:45:59;;;;;;;6.95;3.80;;;;;;;;;;6205140;28;20383;-64
2021/11/14 06:49:00;;;;;;;9.10;5.25;;;;;;;;;;6213495;28;20269;-66
2021/11/14 06:52:01;;;;;;;10.77;5.95;;;;;;;;;;6211473;28;20127;-66
2021/11/14 06:55:05;;;;;;;10.93;6.10;;;;;;;;;;6212222;28;20462;-67
2021/11/14 06:58:07;;;;;;;10.73;6.10;;;;;;;;;;6211850;28;20057;-66
2021/11/14 07:01:08;;;;;;;10.75;6.45;;;;;;;;;;6200838;28;20444;-67
2021/11/14 07:04:10;;;;;;;11.65;6.40;;;;;;;;;;6211092;28;20414;-65
2021/11/14 07:07:11;;;;;;;11.88;6.28;;;;;;;;;;6209454;28;20046;-65
2021/11/14 07:10:17;;;;;;;11.30;6.85;;;;;;;;;;6213088;28;20631;-65
2021/11/14 07:13:18;;;;;;;14.38;7.45;;;;;;;;;;6212401;28;20685;-64
2021/11/14 07:16:20;;;;;;;13.65;7.07;;;;;;;;;;6196354;28;20046;-64
2021/11/14 07:19:21;;;;;;;11.23;6.80;;;;;;;;;;6210670;28;20141;-64
2021/11/14 07:22:22;;;;;;;13.73;7.97;;;;;;;;;;6202904;28;20050;-65
2021/11/14 07:25:25;;;;;;;10.52;6.75;;;;;;;;;;6204046;28;20095;-65
2021/11/14 07:28:27;;;;;;;13.32;7.55;;;;;;;;;;6205730;28;20439;-64
2021/11/14 07:31:28;;;;;;;11.27;6.85;;;;;;;;;;6192458;28;20634;-65
2021/11/14 07:34:29;;;;;;;11.52;7.30;;;;;;;;;;6200029;28;20181;-64
2021/11/14 07:37:31;;;;;;;10.20;6.85;;;;;;;;;;6196717;28;20559;-64
2021/11/14 07:40:33;;;;;;;9.30;6.07;;;;;;;;;;6199575;28;20098;-65
2021/11/14 07:43:35;;;;;;;9.85;6.95;;;;;;;;;;6209677;28;20188;-64
2021/11/14 07:46:36;;;;;;;8.88;6.38;;;;;;;;;;6198731;28;20566;-64
2021/11/14 07:49:38;;;;;;;11.65;7.53;;;;;;;;;;6215092;28;20197;-64
2021/11/14 07:52:39;;;;;;;12.27;7.07;;;;;;;;;;6199552;28;20069;-66
2021/11/14 07:55:42;;;;;;;10.45;6.75;;;;;;;;;;6203683;28;20124;-66
2021/11/14 07:58:43;;;;;;;9.68;6.50;;;;;;;;;;6215798;28;20081;-65
2021/11/14 08:01:45;;;;;;;8.93;6.07;;;;;;;;;;6202189;28;20054;-66
2021/11/14 08:04:46;;;;;;;8.85;6.03;;;;;;;;;;6207693;28;20169;-67
2021/11/14 08:07:48;;;;;;;7.70;5.55;;;;;;;;;;6198378;28;20057;-67
2021/11/14 08:10:50;;;;;;;7.85;5.22;;;;;;;;;;6200108;28;20762;-67
2021/11/14 08:13:52;;;;;;;7.88;5.05;;;;;;;;;;6212723;28;20119;-67
2021/11/14 08:16:53;;;;;;;6.45;4.82;;;;;;;;;;6195501;28;20535;-66
2021/11/14 08:19:58;;;;;;;9.80;5.53;;;;;;;;;;6207993;28;20045;-66
2021/11/14 08:23:00;;;;;;;7.57;4.75;;;;;;;;;;6200728;28;20512;-67
2021/11/14 08:26:03;;;;;;;8.65;4.95;;;;;;;;;;6200785;28;20060;-66
2021/11/14 08:29:05;;;;;;;9.90;4.83;;;;;;;;;;6210657;28;20087;-66
2021/11/14 08:32:07;;;;;;;7.65;5.22;;;;;;;;;;6195896;28;20479;-66
2021/11/14 08:35:09;;;;;;;8.98;4.82;;;;;;;;;;6203153;28;20038;-66
2021/11/14 08:38:11;;;;;;;6.95;4.70;;;;;;;;;;6203802;28;20066;-66
2021/11/14 08:41:14;;;;;;;6.32;3.83;;;;;;;;;;6199559;28;20057;-65
2021/11/14 08:44:15;;;;;;;5.45;4.30;;;;;;;;;;6212777;28;20060;-65
2021/11/14 08:47:17;;;;;;;5.03;3.53;;;;;;;;;;6192444;28;20144;-65
2021/11/14 08:50:19;;;;;;;5.97;3.88;;;;;;;;;;6201678;28;20483;-67
2021/11/14 08:53:20;;;;;;;5.85;4.10;;;;;;;;;;6212042;28;20044;-65
2021/11/14 08:56:23;;;;;;;5.07;3.53;;;;;;;;;;6206896;28;20437;-67
2021/11/14 08:59:25;;;;;;;5.45;3.55;;;;;;;;;;6218638;28;20045;-66
2021/11/14 09:02:27;;;;;;;5.32;3.50;;;;;;;;;;6199500;28;20042;-67
2021/11/14 09:05:29;;;;;;;5.78;3.42;;;;;;;;;;6202900;28;20048;-65
2021/11/14 09:08:30;;;;;;;5.03;3.50;;;;;;;;;;6208540;28;21598;-64
2021/11/14 09:11:33;;;;;;;6.18;3.50;;;;;;;;;;6194335;28;22945;-67
2021/11/14 09:14:34;;;;;;;5.68;3.70;;;;;;;;;;6209418;28;20139;-64
2021/11/14 09:17:36;;;;;;;5.18;3.60;;;;;;;;;;6189235;28;20049;-66
2021/11/14 09:20:37;;;;;;;5.63;3.63;;;;;;;;;;6199611;28;20042;-66
2021/11/14 09:23:39;;;;;;;5.90;3.90;;;;;;;;;;6208915;28;20041;-66
2021/11/14 09:26:42;;;;;;;6.05;3.67;;;;;;;;;;6196477;28;20539;-66
2021/11/14 09:29:43;;;;;;;5.65;3.45;;;;;;;;;;6208438;28;20086;-67
2021/11/14 09:32:44;;;;;;;5.45;3.65;;;;;;;;;;6192885;28;20443;-66
2021/11/14 09:35:46;;;;;;;5.18;3.40;;;;;;;;;;6196144;28;20039;-65
2021/11/14 09:38:48;;;;;;;6.68;3.15;;;;;;;;;;6207068;28;20053;-66
2021/11/14 09:41:51;;;;;;;4.97;2.92;;;;;;;;;;6198361;28;20051;-66
2021/11/14 09:44:53;;;;;;;3.60;2.67;;;;;;;;;;6212961;28;20045;-66
2021/11/14 09:47:55;;;;;;;3.70;2.58;;;;;;;;;;6196763;28;20045;-66
2021/11/14 09:50:57;;;;;;;3.88;2.50;;;;;;;;;;6199265;28;20046;-68
2021/11/14 09:53:59;;;;;;;19.05;4.85;;;;;;;;;;6211088;28;20065;-65
2021/11/14 09:57:02;;;;;;;3.40;2.50;;;;;;;;;;6203053;28;20046;-66
2021/11/14 10:00:05;;;;;;;3.00;2.10;;;;;;;;;;6215074;28;20412;-67
2021/11/14 10:03:07;;;;;;;3.72;2.35;;;;;;;;;;6195361;28;20049;-68
2021/11/14 10:06:08;;;;;;;3.28;2.25;;;;;;;;;;6200756;28;20178;-66
2021/11/14 10:09:10;;;;;;;5.07;2.47;;;;;;;;;;6209298;28;20125;-66
2021/11/14 10:12:17;;;;;;;3.88;2.55;;;;;;;;;;6198235;28;20072;-67
2021/11/14 10:15:21;;;;;;;3.72;2.72;;;;;;;;;;6203477;28;20049;-67
2021/11/14 10:18:23;;;;;;;3.17;2.25;;;;;;;;;;6206189;28;20077;-67
2021/11/14 10:21:25;;;;;;;5.18;1.95;;;;;;;;;;6202838;28;20417;-67
2021/11/14 10:24:27;;;;;;;2.72;1.90;;;;;;;;;;6211115;28;20050;-67
2021/11/14 10:27:30;;;;;;;2.85;1.70;;;;;;;;;;6201462;28;20164;-67
2021/11/14 10:30:33;;;;;;;1.70;1.13;;;;;;;;;;6200123;28;20880;-67
2021/11/14 10:33:34;;;;;;;2.40;1.40;;;;;;;;;;6211126;28;20398;-67
2021/11/14 10:36:36;;;;;;;1.92;1.30;;;;;;;;;;6203749;28;20591;-67
2021/11/14 10:39:39;;;;;;;1.85;1.30;;;;;;;;;;6211809;28;20485;-67
2021/11/14 10:42:44;;;;;;;2.20;1.40;;;;;;;;;;6205357;28;20123;-67
2021/11/14 10:45:45;;;;;;;2.95;1.60;;;;;;;;;;6200888;28;20038;-67
2021/11/14 10:48:47;;;;;;;2.17;1.40;;;;;;;;;;6208329;28;20681;-67
2021/11/14 10:51:57;;;;;;;2.65;1.48;;;;;;;;;;6202232;28;20050;-66
2021/11/14 10:54:59;;;;;;;2.80;1.50;;;;;;;;;;6211708;28;20044;-67
2021/11/14 10:58:02;;;;;;;2.15;1.50;;;;;;;;;;6208288;28;20050;-67
2021/11/14 11:01:05;;;;;;;3.40;1.40;;;;;;;;;;6196094;28;20612;-67
2021/11/14 11:04:08;;;;;;;3.05;1.80;;;;;;;;;;6209050;28;20136;-67
2021/11/14 11:07:10;;;;;;;2.45;1.60;;;;;;;;;;6206874;28;20057;-68
2021/11/14 11:10:12;;;;;;;3.42;1.95;;;;;;;;;;6207760;28;20042;-67
2021/11/14 11:13:16;;;;;;;2.05;1.20;;;;;;;;;;6213883;28;20042;-66
2021/11/14 11:16:19;;;;;;;3.20;1.30;;;;;;;;;;6198413;28;20766;-69
2021/11/14 11:19:25;;;;;;;1.87;1.40;;;;;;;;;;6210173;28;20042;-66
2021/11/14 11:22:26;;;;;;;1.60;1.10;;;;;;;;;;6202202;28;20129;-68
2021/11/14 11:25:33;;;;;;;2.88;1.40;;;;;;;;;;6205350;28;20119;-66
2021/11/14 11:28:37;;;;;;;2.22;1.42;;;;;;;;;;6218112;28;20050;-66
2021/11/14 11:31:38;;;;;;;2.67;1.40;;;;;;;;;;6198184;28;20412;-69
2021/11/14 11:34:42;;;;;;;2.20;1.58;;;;;;;;;;6210389;28;20568;-68
2021/11/14 11:37:43;;;;;;;1.88;1.55;;;;;;;;;;6200692;28;20053;-68
2021/11/14 11:40:45;;;;;;;2.17;1.35;;;;;;;;;;6203261;28;20038;-66
2021/11/14 11:43:49;;;;;;;2.10;1.42;;;;;;;;;;6216277;28;20579;-66
2021/11/14 11:46:52;;;;;;;2.55;1.65;;;;;;;;;;6199138;28;20073;-66
2021/11/14 11:49:54;;;;;;;2.58;1.73;;;;;;;;;;6212547;28;20127;-68
2021/11/14 11:52:55;;;;;;;6.55;3.45;;;;;;;;;;6196734;28;20060;-68
2021/11/14 11:56:01;;;;;;;3.25;2.00;;;;;;;;;;6200806;28;20054;-66
2021/11/14 11:59:09;;;;;;;3.17;2.00;;;;;;;;;;6204883;28;20045;-68
2021/11/14 12:02:11;;;;;;;3.00;1.80;;;;;;;;;;6196481;28;20037;-65
2021/11/14 12:05:15;;;;;;;2.65;1.90;;;;;;;;;;6199293;28;20132;-66
2021/11/14 12:08:17;;;;;;;4.10;2.33;;;;;;;;;;6208267;28;20077;-66
2021/11/14 12:11:29;;;;;;;5.00;2.40;;;;;;;;;;6204401;28;20046;-65
2021/11/14 12:14:34;;;;;;;5.65;2.05;;;;;;;;;;6206646;28;20042;-69
2021/11/14 12:17:35;;;;;;;2.33;1.92;;;;;;;;;;6196227;28;20052;-65
2021/11/14 12:20:40;;;;;;;3.33;2.20;;;;;;;;;;6205610;28;20045;-64
2021/11/14 12:23:49;;;;;;;3.00;2.10;;;;;;;;;;6218112;28;20097;-65
2021/11/14 12:26:51;;;;;;;3.45;2.15;;;;;;;;;;6198577;28;20505;-67
2021/11/14 12:29:57;;;;;;;3.53;2.22;;;;;;;;;;6209657;28;20084;-66
2021/11/14 12:32:59;;;;;;;2.97;1.95;;;;;;;;;;6190080;28;22421;-66
2021/11/14 12:36:09;;;;;;;3.08;2.30;;;;;;;;;;6200997;28;20597;-67
2021/11/14 12:39:16;;;;;;;3.00;2.25;;;;;;;;;;6209363;28;20062;-67
2021/11/14 12:42:18;;;;;;;3.25;2.50;;;;;;;;;;6196961;28;20061;-66
2021/11/14 12:45:21;;;;;;;5.90;2.80;;;;;;;;;;6209970;28;20038;-65
2021/11/14 12:48:24;;;;;;;3.30;2.53;;;;;;;;;;6207638;28;20658;-66
2021/11/14 12:51:26;;;;;;;4.22;2.80;;;;;;;;;;6206215;28;20476;-66
2021/11/14 12:54:28;;;;;;;2.67;2.42;;;;;;;;;;6214140;28;20129;-67
2021/11/14 12:57:39;;;;;;;3.50;2.58;;;;;;;;;;6207636;28;20179;-66
2021/11/14 13:00:43;;;;;;;6.07;2.90;;;;;;;;;;6196663;28;20312;-67
2021/11/14 13:03:44;;;;;;;6.80;4.82;;;;;;;;;;6210656;28;20046;-67
2021/11/14 13:06:46;;;;;;;5.43;4.20;;;;;;;;;;6208198;28;20111;-66
2021/11/14 13:09:48;;;;;;;5.45;2.95;;;;;;;;;;6207256;28;20061;-66
2021/11/14 13:12:49;;;;;;;4.22;2.70;;;;;;;;;;6202206;28;20169;-66
2021/11/14 13:15:56;;;;;;;3.63;2.97;;;;;;;;;;6197528;28;20056;-67
2021/11/14 13:18:58;;;;;;;5.63;3.40;;;;;;;;;;6198189;28;20516;-66
2021/11/14 13:22:00;;;;;;;4.88;3.25;;;;;;;;;;6206679;28;20616;-66
2021/11/14 13:25:04;;;;;;;4.38;2.92;;;;;;;;;;6206126;28;20147;-66
2021/11/14 13:28:05;;;;;;;3.88;2.95;;;;;;;;;;6203690;28;20168;-66
2021/11/14 13:31:15;;;;;;;4.80;2.90;;;;;;;;;;6206945;28;20140;-66
2021/11/14 13:34:17;;;;;;;3.45;3.00;;;;;;;;;;6215475;28;20123;-66
2021/11/14 13:37:20;;;;;;;4.63;2.95;;;;;;;;;;6204529;28;20057;-66
2021/11/14 13:40:22;;;;;;;3.80;3.08;;;;;;;;;;6202583;28;20515;-67
2021/11/14 13:43:23;;;;;;;4.95;3.25;;;;;;;;;;6212502;28;20095;-67
2021/11/14 13:46:27;;;;;;;4.65;3.15;;;;;;;;;;6198089;28;20053;-67
2021/11/14 13:49:28;;;;;;;6.20;4.35;;;;;;;;;;6207964;28;20054;-66
2021/11/14 13:52:30;;;;;;;5.75;3.75;;;;;;;;;;6196767;28;20099;-67
2021/11/14 13:55:43;;;;;;;4.10;3.25;;;;;;;;;;6214101;28;20140;-68
2021/11/14 13:58:52;;;;;;;5.32;3.65;;;;;;;;;;6214035;28;20565;-68
2021/11/14 14:01:57;;;;;;;4.10;3.40;;;;;;;;;;6155054;28;20054;-67
2021/11/14 14:05:00;;;;;;;4.90;3.28;;;;;;;;;;6206980;28;20085;-67
2021/11/14 14:08:01;;;;;;;4.20;3.55;;;;;;;;;;6203677;28;20050;-67
2021/11/14 14:11:05;;;;;;;4.90;3.53;;;;;;;;;;6204951;28;20478;-67
2021/11/14 14:14:07;;;;;;;4.85;3.58;;;;;;;;;;6212742;28;20103;-67
2021/11/14 14:17:10;;;;;;;5.53;3.80;;;;;;;;;;6199252;28;20096;-67
2021/11/14 14:20:12;;;;;;;5.85;3.28;;;;;;;;;;6203990;28;20058;-68
2021/11/14 14:23:13;;;;;;;6.13;4.10;;;;;;;;;;6207959;28;20262;-67
2021/11/14 14:26:19;;;;;;;3.75;3.30;;;;;;;;;;6202456;28;20046;-67
2021/11/14 14:29:22;;;;;;;4.50;3.25;;;;;;;;;;6214990;28;20045;-68
2021/11/14 14:32:25;;;;;;;4.47;3.00;;;;;;;;;;6191057;28;20046;-67
2021/11/14 14:35:27;;;;;;;5.47;3.35;;;;;;;;;;6207881;28;20972;-68
2021/11/14 14:38:29;;;;;;;5.03;3.72;;;;;;;;;;6214060;28;20038;-68
2021/11/14 14:41:31;;;;;;;4.97;3.55;;;;;;;;;;6203070;28;20060;-66
2021/11/14 14:44:32;;;;;;;5.88;3.38;;;;;;;;;;6220266;28;20050;-66
2021/11/14 14:47:35;;;;;;;4.57;3.60;;;;;;;;;;6205556;28;20528;-66
2021/11/14 14:50:37;;;;;;;4.65;3.22;;;;;;;;;;6207566;28;20389;-71
2021/11/14 14:53:40;;;;;;;37.25;23.67;;;;;;;;;;6213831;28;20064;-69
2021/11/14 14:56:42;;;;;;;23.83;14.30;;;;;;;;;;6202611;28;20099;-68
2021/11/14 14:59:48;;;;;;;5.85;3.88;;;;;;;;;;6212738;28;20058;-68
2021/11/14 15:02:58;;;;;;;21.27;11.70;;;;;;;;;;6179880;28;20116;-68
2021/11/14 15:06:03;;;;;;;13.73;8.85;;;;;;;;;;6207592;28;20121;-69
2021/11/14 15:09:05;;;;;;;5.38;4.30;;;;;;;;;;6217833;28;20539;-68
2021/11/14 15:12:08;;;;;;;4.80;3.58;;;;;;;;;;6197501;28;20129;-67
2021/11/14 15:15:13;;;;;;;5.65;3.67;;;;;;;;;;6213492;28;20053;-66
2021/11/14 15:18:17;;;;;;;4.65;4.07;;;;;;;;;;6205141;28;20045;-67
2021/11/14 15:21:19;;;;;;;5.18;3.90;;;;;;;;;;6202404;28;20058;-67
2021/11/14 15:24:20;;;;;;;7.10;4.57;;;;;;;;;;6218005;28;20045;-67
2021/11/14 15:27:22;;;;;;;6.78;3.80;;;;;;;;;;6209088;28;20609;-65
2021/11/14 15:30:24;;;;;;;6.72;4.30;;;;;;;;;;6205120;28;20092;-68
2021/11/14 15:33:28;;;;;;;5.55;4.15;;;;;;;;;;6206130;28;20054;-67
2021/11/14 15:36:29;;;;;;;5.70;4.57;;;;;;;;;;6205224;28;20649;-66
2021/11/14 15:39:30;;;;;;;9.25;6.45;;;;;;;;;;6210473;28;20054;-66
2021/11/14 15:42:32;;;;;;;5.50;4.47;;;;;;;;;;6194817;28;20046;-66
2021/11/14 15:45:34;;;;;;;6.50;4.47;;;;;;;;;;6192443;28;20042;-69
2021/11/14 15:48:37;;;;;;;5.95;4.72;;;;;;;;;;6204274;28;20092;-67
2021/11/14 15:51:40;;;;;;;7.60;5.07;;;;;;;;;;6204553;28;20477;-67
2021/11/14 15:54:41;;;;;;;8.00;4.07;;;;;;;;;;6212447;28;20390;-66
2021/11/14 15:57:43;;;;;;;6.95;4.75;;;;;;;;;;6210268;28;20054;-66
2021/11/14 16:00:46;;;;;;;5.30;4.32;;;;;;;;;;6205467;28;20111;-66
2021/11/14 16:03:49;;;;;;;6.32;4.90;;;;;;;;;;6209071;28;20054;-67
2021/11/14 16:06:50;;;;;;;5.78;4.25;;;;;;;;;;6207521;28;20125;-67
2021/11/14 16:09:52;;;;;;;6.05;4.53;;;;;;;;;;6220071;28;20180;-67
2021/11/14 16:12:54;;;;;;;11.15;7.88;;;;;;;;;;6201721;28;20192;-67
2021/11/14 16:15:55;;;;;;;6.85;5.30;;;;;;;;;;6203148;28;20132;-67
2021/11/14 16:18:58;;;;;;;8.23;5.80;;;;;;;;;;6205081;28;20115;-67
2021/11/14 16:22:00;;;;;;;6.95;4.55;;;;;;;;;;6198412;28;20131;-67
2021/11/14 16:25:01;;;;;;;6.90;4.55;;;;;;;;;;6211251;28;20053;-67
2021/11/14 16:28:03;;;;;;;6.68;4.28;;;;;;;;;;6202120;28;20197;-67
2021/11/14 16:31:04;;;;;;;7.65;6.10;;;;;;;;;;6209614;28;20041;-67
2021/11/14 16:34:07;;;;;;;6.78;4.05;;;;;;;;;;6215138;28;20045;-67
2021/11/14 16:37:08;;;;;;;6.00;4.20;;;;;;;;;;6204614;28;20132;-67
2021/11/14 16:40:10;;;;;;;5.63;3.40;;;;;;;;;;6205440;28;20123;-68
2021/11/14 16:43:12;;;;;;;6.00;3.90;;;;;;;;;;6212444;28;20049;-67
2021/11/14 16:46:15;;;;;;;5.22;3.05;;;;;;;;;;6208897;28;20049;-66
2021/11/14 16:49:18;;;;;;;4.47;3.47;;;;;;;;;;6215148;28;20053;-66
2021/11/14 16:52:20;;;;;;;5.07;3.08;;;;;;;;;;6207844;28;20499;-66
2021/11/14 16:55:21;;;;;;;4.50;3.13;;;;;;;;;;6208494;28;20056;-67
2021/11/14 16:58:25;;;;;;;5.40;3.00;;;;;;;;;;6216371;28;20050;-67
2021/11/14 17:01:26;;;;;;;4.18;2.90;;;;;;;;;;6201477;28;20060;-67
2021/11/14 17:04:29;;;;;;;5.00;3.60;;;;;;;;;;6214133;28;20042;-67
2021/11/14 17:07:30;;;;;;;4.47;2.70;;;;;;;;;;6199381;28;20103;-67
2021/11/14 17:10:32;;;;;;;4.20;2.92;;;;;;;;;;6202992;28;20983;-67
2021/11/14 17:13:33;;;;;;;4.05;2.63;;;;;;;;;;6217915;28;20042;-67
2021/11/14 17:16:35;;;;;;;3.83;2.80;;;;;;;;;;6196949;28;20099;-67
2021/11/14 17:19:38;;;;;;;4.57;2.58;;;;;;;;;;6203865;28;20085;-67
2021/11/14 17:22:40;;;;;;;3.97;2.77;;;;;;;;;;6192839;28;20139;-67
2021/11/14 17:25:42;;;;;;;4.10;2.70;;;;;;;;;;6198977;28;21023;-67
2021/11/14 17:28:43;;;;;;;3.50;2.35;;;;;;;;;;6207559;28;20046;-67
2021/11/14 17:31:45;;;;;;;3.42;2.58;;;;;;;;;;6196979;28;20050;-67
2021/11/14 17:34:47;;;;;;;4.90;2.22;;;;;;;;;;6212364;28;20053;-67
2021/11/14 17:37:49;;;;;;;6.53;2.70;;;;;;;;;;6193716;28;20451;-67
2021/11/14 17:40:50;;;;;;;3.00;2.63;;;;;;;;;;6201231;28;20737;-67
2021/11/14 17:43:52;;;;;;;4.45;2.75;;;;;;;;;;6216655;28;20441;-67
2021/11/14 17:46:54;;;;;;;4.20;2.90;;;;;;;;;;6198213;28;20482;-67
2021/11/14 17:49:57;;;;;;;5.45;3.30;;;;;;;;;;6212779;28;20466;-67
2021/11/14 17:53:01;;;;;;;4.22;3.45;;;;;;;;;;6203925;28;20391;-67
2021/11/14 17:56:02;;;;;;;6.78;5.28;;;;;;;;;;6202281;28;20054;-67
2021/11/14 17:59:06;;;;;;;8.68;5.88;;;;;;;;;;6209573;28;20050;-67
2021/11/14 18:02:07;;;;;;;6.72;5.70;;;;;;;;;;6193755;28;20053;-67